Merrimac — WDC8717 — position and weather

sailwx.info

Track history (hours):
 
Tides and Currents Weather Stations Pressure Air Temp Water Temp Dewpoint Dewpoint Depression Visibility Wind Speed Wind Dir Waves Ship Positions

Merrimac

Owner: Intracoastal Marine, Inc., Coinjock, NC. More information available from US FCC via Universal Licensing System and Coast Guard Vessel Documentation Center.

Last reported at 2018-Apr-20 13:14 UTC. Time now 2018-Apr-20 14:11 UTC.
Position N 36°43' W 076°14'.

Length 22 m; draft 3 m.

Type: Tug. MMSI: 367091990.

Date/timePositionNaut miles runAvg speedWind from/ knotsBaromVisibWave heightAir tempDewpointWater temp
2018-Apr-20 13:14N 36°43' W 076°14'1 3.7
2018-Apr-20 13:00N 36°43' W 076°15'0 0.5
2018-Apr-20 12:30N 36°43' W 076°15'1 1.8
2018-Apr-20 12:00N 36°44' W 076°16'2 3.6
2018-Apr-20 11:30N 36°45' W 076°18'2 4.0
2018-Apr-20 11:00N 36°47' W 076°18'1 1.2
2018-Apr-20 10:30N 36°47' W 076°18'2 3.3
2018-Apr-20 10:00N 36°48' W 076°17'0 0.0
2018-Apr-20 09:30N 36°49' W 076°17'0 0.0
2018-Apr-20 09:00N 36°49' W 076°17'0 0.0
2018-Apr-20 08:30N 36°49' W 076°17'0 0.0
2018-Apr-20 08:00N 36°49' W 076°17'0 0.0
2018-Apr-20 07:30N 36°49' W 076°17'0 0.0
2018-Apr-20 07:00N 36°49' W 076°17'0 0.0
2018-Apr-20 06:30N 36°49' W 076°17'0 0.0
2018-Apr-20 06:00N 36°49' W 076°17'0 0.0
2018-Apr-20 05:30N 36°49' W 076°17'0 0.0
2018-Apr-20 05:00N 36°49' W 076°17'0 0.0
2018-Apr-20 04:30N 36°49' W 076°17'0 0.0
2018-Apr-20 04:00N 36°49' W 076°17'0 0.0
2018-Apr-20 03:30N 36°49' W 076°17'0 0.0
2018-Apr-20 03:00N 36°49' W 076°17'0 0.0
2018-Apr-20 02:30N 36°49' W 076°17'0 0.0
2018-Apr-20 02:00N 36°49' W 076°17'0 0.0
2018-Apr-20 01:30N 36°49' W 076°17'0 0.0
2018-Apr-20 01:00N 36°49' W 076°17'0 0.0
2018-Apr-20 00:30N 36°49' W 076°17'0 0.0
2018-Apr-20 00:00N 36°49' W 076°17'0 0.0
2018-Apr-19 23:30N 36°49' W 076°17'0 0.0
2018-Apr-19 23:00N 36°49' W 076°17'0 0.0
2018-Apr-19 22:30N 36°49' W 076°17'0 0.0
2018-Apr-19 22:00N 36°49' W 076°17'0 0.0
2018-Apr-19 21:30N 36°49' W 076°17'0 0.0
2018-Apr-19 21:00N 36°49' W 076°17'0 0.0
2018-Apr-19 20:30N 36°49' W 076°17'0 0.0
2018-Apr-19 20:00N 36°49' W 076°17'0 0.0
2018-Apr-19 19:30N 36°48' W 076°17'0 0.0
2018-Apr-19 19:00N 36°48' W 076°17'0 0.0
2018-Apr-19 18:30N 36°49' W 076°17'0 0.0
2018-Apr-19 18:00N 36°48' W 076°17'0 0.0
2018-Apr-19 17:30N 36°48' W 076°17'0 0.0
2018-Apr-19 17:00N 36°48' W 076°17'0 0.0
2018-Apr-19 16:30N 36°48' W 076°17'0 0.0
2018-Apr-19 16:00N 36°49' W 076°17'0 0.0
2018-Apr-19 15:30N 36°49' W 076°17'0 0.0
2018-Apr-19 15:00N 36°49' W 076°17'0 0.0
2018-Apr-19 14:30N 36°48' W 076°17'0 0.0
2018-Apr-19 14:00N 36°48' W 076°17'0 0.0
2018-Apr-19 13:30N 36°49' W 076°17'0 0.0
2018-Apr-19 13:00N 36°48' W 076°17'0 0.0
2018-Apr-19 12:30N 36°49' W 076°17'0 0.0
2018-Apr-19 12:00N 36°48' W 076°17'0 0.0
2018-Apr-19 11:30N 36°49' W 076°17'0 0.0
2018-Apr-19 11:00N 36°49' W 076°17'0 0.0
2018-Apr-19 10:30N 36°49' W 076°17'0 0.0
2018-Apr-19 10:00N 36°48' W 076°17'0 0.0
2018-Apr-19 09:30N 36°49' W 076°17'0 0.0
2018-Apr-19 09:00N 36°49' W 076°17'0 0.0
2018-Apr-19 08:30N 36°49' W 076°17'1 1.4
2018-Apr-19 08:00N 36°48' W 076°18'1 2.5
2018-Apr-19 07:30N 36°47' W 076°18'0 0.2
2018-Apr-19 07:00N 36°47' W 076°18'2 4.5
2018-Apr-19 06:30N 36°44' W 076°18'3 3.9
2018-Apr-19 05:49N 36°43' W 076°15'11 0.3
2018-Apr-17 19:09N 36°38' W 076°03'1 4.7
2018-Apr-17 18:59N 36°39' W 076°04'2 4.8
2018-Apr-17 18:30N 36°41' W 076°04'2 3.9
2018-Apr-17 17:58N 36°43' W 076°05'7 3.9
2018-Apr-17 16:09N 36°43' W 076°14'1 3.7
2018-Apr-17 16:00N 36°43' W 076°15'0 0.6
2018-Apr-17 15:30N 36°43' W 076°15'0 1.0
2018-Apr-17 15:00N 36°44' W 076°15'1 2.6
2018-Apr-17 14:30N 36°44' W 076°17'2 4.9
2018-Apr-17 14:00N 36°46' W 076°18'0 0.0
2018-Apr-17 13:30N 36°46' W 076°18'0 0.7
2018-Apr-17 13:00N 36°46' W 076°18'1 1.5
2018-Apr-17 12:30N 36°47' W 076°18'1 1.2
2018-Apr-17 12:00N 36°47' W 076°18'2 3.2
2018-Apr-17 11:30N 36°49' W 076°17'0 0.0
2018-Apr-17 11:01N 36°48' W 076°17'0 0.0
2018-Apr-17 10:30N 36°49' W 076°17'0 0.0
2018-Apr-17 10:00N 36°49' W 076°17'0 0.0
2018-Apr-17 09:30N 36°49' W 076°17'0 0.0
2018-Apr-17 09:00N 36°48' W 076°17'0 0.0
2018-Apr-17 08:31N 36°48' W 076°17'0 0.0
2018-Apr-17 08:00N 36°48' W 076°17'0 0.0
2018-Apr-17 07:30N 36°48' W 076°17'0 0.0
2018-Apr-17 07:00N 36°49' W 076°17'0 0.0
2018-Apr-17 06:30N 36°48' W 076°17'0 0.0
2018-Apr-17 06:00N 36°49' W 076°17'0 0.0
2018-Apr-17 05:30N 36°48' W 076°17'0 0.0
2018-Apr-17 05:01N 36°49' W 076°17'0 0.0
2018-Apr-17 04:30N 36°48' W 076°17'0 0.0
2018-Apr-17 04:00N 36°48' W 076°17'0 0.0
2018-Apr-17 03:30N 36°48' W 076°17'0 0.0
2018-Apr-17 03:00N 36°49' W 076°17'0 0.0
2018-Apr-17 02:30N 36°48' W 076°17'0 0.0
2018-Apr-17 02:01N 36°48' W 076°17'0 0.0
2018-Apr-17 01:31N 36°49' W 076°17'0 0.0
2018-Apr-17 01:00N 36°48' W 076°17'0 0.0
2018-Apr-17 00:30N 36°48' W 076°17'0 0.0
2018-Apr-17 00:00N 36°48' W 076°17'0 0.0
2018-Apr-16 23:31N 36°48' W 076°17'0 0.0
2018-Apr-16 23:00N 36°48' W 076°17'0 0.0
2018-Apr-16 22:31N 36°48' W 076°17'0 0.0
2018-Apr-16 22:00N 36°48' W 076°17'0 0.0
2018-Apr-16 21:30N 36°49' W 076°17'1 2.5
2018-Apr-16 21:00N 36°50' W 076°18'2 4.6
2018-Apr-16 20:30N 36°50' W 076°15'5 1.3
2018-Apr-16 16:27N 36°53' W 076°20'0 0.2
2018-Apr-16 15:57N 36°53' W 076°20'3 1.3
2018-Apr-16 13:16N 36°56' W 076°20'2 7.8
2018-Apr-16 12:59N 36°54' W 076°20'4 7.5
2018-Apr-16 12:30N 36°51' W 076°18'3 5.3
2018-Apr-16 12:00N 36°48' W 076°17'0 0.0
2018-Apr-16 11:30N 36°48' W 076°17'0 0.0
2018-Apr-16 11:00N 36°48' W 076°17'0 0.0
2018-Apr-16 10:30N 36°48' W 076°17'0 0.0
2018-Apr-16 10:00N 36°48' W 076°17'0 0.0
2018-Apr-16 09:30N 36°48' W 076°17'0 0.0
2018-Apr-16 09:00N 36°48' W 076°17'0 0.0
2018-Apr-16 08:30N 36°48' W 076°17'0 0.0
2018-Apr-16 08:00N 36°48' W 076°17'0 0.0
2018-Apr-16 07:30N 36°48' W 076°17'0 0.0
2018-Apr-16 07:00N 36°48' W 076°17'0 0.0
2018-Apr-16 06:30N 36°48' W 076°17'0 0.0
2018-Apr-16 06:00N 36°48' W 076°17'0 0.0
2018-Apr-16 05:30N 36°48' W 076°17'0 0.0
2018-Apr-16 05:00N 36°48' W 076°17'0 0.0
2018-Apr-16 04:30N 36°48' W 076°17'0 0.0
2018-Apr-16 04:00N 36°49' W 076°17'0 0.0
2018-Apr-16 03:30N 36°48' W 076°17'0 0.0
2018-Apr-16 03:00N 36°48' W 076°17'0 0.0
2018-Apr-16 02:30N 36°48' W 076°17'0 0.0
2018-Apr-16 02:00N 36°48' W 076°17'0 0.0
2018-Apr-16 01:31N 36°48' W 076°17'0 0.0
2018-Apr-16 01:00N 36°48' W 076°17'0 0.0
2018-Apr-16 00:30N 36°48' W 076°17'0 0.0
2018-Apr-16 00:00N 36°48' W 076°17'0 0.0
2018-Apr-15 23:30N 36°48' W 076°17'0 0.0
2018-Apr-15 23:00N 36°48' W 076°17'0 0.0
2018-Apr-15 22:30N 36°48' W 076°17'0 0.0
2018-Apr-15 22:00N 36°48' W 076°17'0 0.0
2018-Apr-15 21:30N 36°48' W 076°17'0 0.0
2018-Apr-15 21:01N 36°48' W 076°17'0 0.0
2018-Apr-15 20:30N 36°48' W 076°17'0 0.0
2018-Apr-15 20:01N 36°48' W 076°17'0 0.0
2018-Apr-15 19:31N 36°48' W 076°17'0 0.0
2018-Apr-15 19:00N 36°48' W 076°17'0 0.0
2018-Apr-15 18:30N 36°48' W 076°17'0 0.0
2018-Apr-15 18:01N 36°48' W 076°17'0 0.0
2018-Apr-15 17:30N 36°48' W 076°17'0 0.0
2018-Apr-15 17:00N 36°48' W 076°17'0 0.0
2018-Apr-15 16:30N 36°48' W 076°17'0 0.0
2018-Apr-15 16:00N 36°48' W 076°17'0 0.0
2018-Apr-15 15:30N 36°48' W 076°17'0 0.0
2018-Apr-15 15:01N 36°48' W 076°17'0 0.0
2018-Apr-15 14:31N 36°48' W 076°17'0 0.0
2018-Apr-15 14:00N 36°48' W 076°17'0 0.0
2018-Apr-15 13:30N 36°49' W 076°17'0 0.0
2018-Apr-15 13:01N 36°48' W 076°17'0 0.0
2018-Apr-15 12:30N 36°48' W 076°17'0 0.0
2018-Apr-15 12:00N 36°48' W 076°17'0 0.0
2018-Apr-15 11:31N 36°48' W 076°17'0 0.0
2018-Apr-15 11:00N 36°49' W 076°17'0 0.0
2018-Apr-15 10:31N 36°48' W 076°17'0 0.0
2018-Apr-15 10:00N 36°48' W 076°17'0 0.0
2018-Apr-15 09:30N 36°48' W 076°17'0 0.0
2018-Apr-15 09:00N 36°48' W 076°17'0 0.0
2018-Apr-15 08:31N 36°48' W 076°17'0 0.0
2018-Apr-15 08:01N 36°48' W 076°17'0 0.0
2018-Apr-15 07:30N 36°48' W 076°17'0 0.0
2018-Apr-15 07:00N 36°48' W 076°17'0 0.0
2018-Apr-15 06:29N 36°48' W 076°17'0 0.0
2018-Apr-15 06:00N 36°48' W 076°17'0 0.0
2018-Apr-15 05:31N 36°48' W 076°17'0 0.0
2018-Apr-15 05:00N 36°48' W 076°17'0 0.0
2018-Apr-15 04:31N 36°48' W 076°17'0 0.0
2018-Apr-15 04:01N 36°48' W 076°17'0 0.0
2018-Apr-15 03:30N 36°48' W 076°17'0 0.0
2018-Apr-15 03:00N 36°48' W 076°17'0 0.0
2018-Apr-15 02:30N 36°48' W 076°17'0 0.0
2018-Apr-15 02:01N 36°48' W 076°17'0 0.0
2018-Apr-15 01:31N 36°48' W 076°17'0 0.0
2018-Apr-15 01:00N 36°48' W 076°17'0 0.0
2018-Apr-15 00:30N 36°48' W 076°17'0 0.0
2018-Apr-15 00:01N 36°48' W 076°17'0 0.0
2018-Apr-14 23:30N 36°48' W 076°17'0 0.0
2018-Apr-14 23:00N 36°48' W 076°17'0 0.9
2018-Apr-14 22:30N 36°49' W 076°17'2 3.5
2018-Apr-14 22:01N 36°50' W 076°16'1 2.2
2018-Apr-14 21:30N 36°50' W 076°15'3 6.7
2018-Apr-14 21:00N 36°51' W 076°19'  
2018-Apr-11 23:03N 36°56' W 076°20'0 8.2
2018-Apr-11 23:00N 36°56' W 076°20'4 7.7
2018-Apr-11 22:30N 36°52' W 076°19'4 7.3
2018-Apr-11 22:00N 36°50' W 076°15'0 0.3
2018-Apr-11 21:30N 36°50' W 076°15'2 4.5
2018-Apr-11 21:00N 36°50' W 076°18'2 3.4
2018-Apr-11 20:30N 36°49' W 076°17'0 0.0
2018-Apr-11 20:00N 36°48' W 076°17'0 0.0
2018-Apr-11 19:30N 36°48' W 076°17'0 0.0
2018-Apr-11 19:00N 36°49' W 076°17'0 0.0
2018-Apr-11 18:30N 36°48' W 076°17'0 0.0
2018-Apr-11 18:00N 36°48' W 076°17'0 0.0
2018-Apr-11 17:30N 36°49' W 076°17'0 0.0
2018-Apr-11 17:00N 36°48' W 076°17'0 0.0
2018-Apr-11 16:30N 36°49' W 076°17'0 0.0
2018-Apr-11 16:00N 36°49' W 076°17'0 0.0
2018-Apr-11 15:30N 36°48' W 076°17'0 0.0
2018-Apr-11 15:00N 36°49' W 076°17'1 1.9
2018-Apr-11 14:30N 36°49' W 076°17'4 7.2
2018-Apr-11 13:57N 36°53' W 076°21'1 1.8
2018-Apr-11 13:30N 36°52' W 076°20'1 1.5
2018-Apr-11 12:57N 36°53' W 076°21'1 1.3
2018-Apr-11 12:30N 36°52' W 076°20'4 7.5
2018-Apr-11 12:00N 36°49' W 076°17'1 1.5
2018-Apr-11 11:30N 36°48' W 076°17'0 0.0
2018-Apr-11 11:00N 36°48' W 076°17'0 0.0
2018-Apr-11 10:31N 36°48' W 076°17'0 0.0
2018-Apr-11 10:00N 36°48' W 076°17'0 0.0
2018-Apr-11 09:30N 36°48' W 076°17'0 0.0
2018-Apr-11 09:00N 36°48' W 076°17'0 0.0
2018-Apr-11 08:30N 36°48' W 076°17'0 0.0
2018-Apr-11 08:00N 36°48' W 076°17'0 0.0
2018-Apr-11 07:30N 36°48' W 076°17'0 0.0
2018-Apr-11 07:00N 36°48' W 076°17'0 0.0
2018-Apr-11 06:30N 36°48' W 076°17'0 0.0
2018-Apr-11 06:00N 36°48' W 076°17'0 0.0
2018-Apr-11 05:30N 36°48' W 076°17'0 0.0
2018-Apr-11 05:00N 36°48' W 076°17'0 0.0
2018-Apr-11 04:30N 36°48' W 076°17'0 0.0
2018-Apr-11 04:00N 36°48' W 076°17'0 0.0
2018-Apr-11 03:30N 36°48' W 076°17'0 0.0
2018-Apr-11 03:00N 36°48' W 076°17'0 0.0
2018-Apr-11 02:30N 36°48' W 076°17'0 0.0
2018-Apr-11 02:00N 36°48' W 076°17'0 0.0
2018-Apr-11 01:30N 36°48' W 076°17'0 0.0
2018-Apr-11 01:00N 36°48' W 076°17'0 0.0
2018-Apr-11 00:30N 36°48' W 076°17'0 0.0
2018-Apr-11 00:00N 36°48' W 076°17'0 0.0
2018-Apr-10 23:30N 36°48' W 076°17'0 0.0
2018-Apr-10 23:00N 36°48' W 076°17'0 0.0
2018-Apr-10 22:31N 36°48' W 076°17'0 0.0
2018-Apr-10 22:00N 36°48' W 076°17'0 0.0
2018-Apr-10 21:31N 36°48' W 076°17'0 0.0
2018-Apr-10 21:00N 36°48' W 076°17'0 0.0
2018-Apr-10 20:30N 36°48' W 076°17'0 0.0
2018-Apr-10 20:00N 36°48' W 076°17'0 0.0
2018-Apr-10 19:30N 36°48' W 076°17'0 0.0
2018-Apr-10 19:00N 36°48' W 076°17'0 0.0
2018-Apr-10 18:30N 36°48' W 076°17'0 0.0
2018-Apr-10 18:00N 36°48' W 076°17'0 0.0
2018-Apr-10 17:30N 36°48' W 076°17'0 0.0
2018-Apr-10 17:00N 36°48' W 076°17'0 0.0
2018-Apr-10 16:30N 36°48' W 076°17'0 0.0
2018-Apr-10 16:00N 36°48' W 076°17'0 0.0
2018-Apr-10 15:30N 36°48' W 076°17'0 0.0
2018-Apr-10 15:00N 36°48' W 076°17'0 0.0
2018-Apr-10 14:30N 36°48' W 076°17'0 0.0
2018-Apr-10 14:00N 36°48' W 076°17'0 0.0
2018-Apr-10 13:31N 36°48' W 076°17'  
Track history (hours):
 
Tides and Currents Weather Stations Pressure Air Temp Water Temp Dewpoint Dewpoint Depression Visibility Wind Speed Wind Dir Waves Ship Positions

Merrimac

Owner: Intracoastal Marine, Inc., Coinjock, NC. More information available from US FCC via Universal Licensing System and Coast Guard Vessel Documentation Center.

Last reported at 2018-Apr-20 13:14 UTC. Time now 2018-Apr-20 14:12 UTC.
Position N 36°43' W 076°14'.

Length 22 m; draft 3 m.

Type: Tug. MMSI: 367091990.

Date/timePositionNaut miles runAvg speedWind from/ knotsBaromVisibWave heightAir tempDewpointWater temp
2018-Apr-20 13:14N 36°43' W 076°14'1 3.7
2018-Apr-20 13:00N 36°43' W 076°15'0 0.5
2018-Apr-20 12:30N 36°43' W 076°15'1 1.8
2018-Apr-20 12:00N 36°44' W 076°16'2 3.6
2018-Apr-20 11:30N 36°45' W 076°18'2 4.0
2018-Apr-20 11:00N 36°47' W 076°18'1 1.2
2018-Apr-20 10:30N 36°47' W 076°18'2 3.3
2018-Apr-20 10:00N 36°48' W 076°17'0 0.0
2018-Apr-20 09:30N 36°49' W 076°17'0 0.0
2018-Apr-20 09:00N 36°49' W 076°17'0 0.0
2018-Apr-20 08:30N 36°49' W 076°17'0 0.0
2018-Apr-20 08:00N 36°49' W 076°17'0 0.0
2018-Apr-20 07:30N 36°49' W 076°17'0 0.0
2018-Apr-20 07:00N 36°49' W 076°17'0 0.0
2018-Apr-20 06:30N 36°49' W 076°17'0 0.0
2018-Apr-20 06:00N 36°49' W 076°17'0 0.0
2018-Apr-20 05:30N 36°49' W 076°17'0 0.0
2018-Apr-20 05:00N 36°49' W 076°17'0 0.0
2018-Apr-20 04:30N 36°49' W 076°17'0 0.0
2018-Apr-20 04:00N 36°49' W 076°17'0 0.0
2018-Apr-20 03:30N 36°49' W 076°17'0 0.0
2018-Apr-20 03:00N 36°49' W 076°17'0 0.0
2018-Apr-20 02:30N 36°49' W 076°17'0 0.0
2018-Apr-20 02:00N 36°49' W 076°17'0 0.0
2018-Apr-20 01:30N 36°49' W 076°17'0 0.0
2018-Apr-20 01:00N 36°49' W 076°17'0 0.0
2018-Apr-20 00:30N 36°49' W 076°17'0 0.0
2018-Apr-20 00:00N 36°49' W 076°17'0 0.0
2018-Apr-19 23:30N 36°49' W 076°17'0 0.0
2018-Apr-19 23:00N 36°49' W 076°17'0 0.0
2018-Apr-19 22:30N 36°49' W 076°17'0 0.0
2018-Apr-19 22:00N 36°49' W 076°17'0 0.0
2018-Apr-19 21:30N 36°49' W 076°17'0 0.0
2018-Apr-19 21:00N 36°49' W 076°17'0 0.0
2018-Apr-19 20:30N 36°49' W 076°17'0 0.0
2018-Apr-19 20:00N 36°49' W 076°17'0 0.0
2018-Apr-19 19:30N 36°48' W 076°17'0 0.0
2018-Apr-19 19:00N 36°48' W 076°17'0 0.0
2018-Apr-19 18:30N 36°49' W 076°17'0 0.0
2018-Apr-19 18:00N 36°48' W 076°17'0 0.0
2018-Apr-19 17:30N 36°48' W 076°17'0 0.0
2018-Apr-19 17:00N 36°48' W 076°17'0 0.0
2018-Apr-19 16:30N 36°48' W 076°17'0 0.0
2018-Apr-19 16:00N 36°49' W 076°17'0 0.0
2018-Apr-19 15:30N 36°49' W 076°17'0 0.0
2018-Apr-19 15:00N 36°49' W 076°17'0 0.0
2018-Apr-19 14:30N 36°48' W 076°17'0 0.0
2018-Apr-19 14:00N 36°48' W 076°17'0 0.0
2018-Apr-19 13:30N 36°49' W 076°17'0 0.0
2018-Apr-19 13:00N 36°48' W 076°17'0 0.0
2018-Apr-19 12:30N 36°49' W 076°17'0 0.0
2018-Apr-19 12:00N 36°48' W 076°17'0 0.0
2018-Apr-19 11:30N 36°49' W 076°17'0 0.0
2018-Apr-19 11:00N 36°49' W 076°17'0 0.0
2018-Apr-19 10:30N 36°49' W 076°17'0 0.0
2018-Apr-19 10:00N 36°48' W 076°17'0 0.0
2018-Apr-19 09:30N 36°49' W 076°17'0 0.0
2018-Apr-19 09:00N 36°49' W 076°17'0 0.0
2018-Apr-19 08:30N 36°49' W 076°17'1 1.4
2018-Apr-19 08:00N 36°48' W 076°18'1 2.5
2018-Apr-19 07:30N 36°47' W 076°18'0 0.2
2018-Apr-19 07:00N 36°47' W 076°18'2 4.5
2018-Apr-19 06:30N 36°44' W 076°18'3 3.9
2018-Apr-19 05:49N 36°43' W 076°15'11 0.3
2018-Apr-17 19:09N 36°38' W 076°03'1 4.7
2018-Apr-17 18:59N 36°39' W 076°04'2 4.8
2018-Apr-17 18:30N 36°41' W 076°04'2 3.9
2018-Apr-17 17:58N 36°43' W 076°05'7 3.9
2018-Apr-17 16:09N 36°43' W 076°14'1 3.7
2018-Apr-17 16:00N 36°43' W 076°15'0 0.6
2018-Apr-17 15:30N 36°43' W 076°15'0 1.0
2018-Apr-17 15:00N 36°44' W 076°15'1 2.6
2018-Apr-17 14:30N 36°44' W 076°17'2 4.9
2018-Apr-17 14:00N 36°46' W 076°18'0 0.0
2018-Apr-17 13:30N 36°46' W 076°18'0 0.7
2018-Apr-17 13:00N 36°46' W 076°18'1 1.5
2018-Apr-17 12:30N 36°47' W 076°18'1 1.2
2018-Apr-17 12:00N 36°47' W 076°18'2 3.2
2018-Apr-17 11:30N 36°49' W 076°17'0 0.0
2018-Apr-17 11:01N 36°48' W 076°17'0 0.0
2018-Apr-17 10:30N 36°49' W 076°17'0 0.0
2018-Apr-17 10:00N 36°49' W 076°17'0 0.0
2018-Apr-17 09:30N 36°49' W 076°17'0 0.0
2018-Apr-17 09:00N 36°48' W 076°17'0 0.0
2018-Apr-17 08:31N 36°48' W 076°17'0 0.0
2018-Apr-17 08:00N 36°48' W 076°17'0 0.0
2018-Apr-17 07:30N 36°48' W 076°17'0 0.0
2018-Apr-17 07:00N 36°49' W 076°17'0 0.0
2018-Apr-17 06:30N 36°48' W 076°17'0 0.0
2018-Apr-17 06:00N 36°49' W 076°17'0 0.0
2018-Apr-17 05:30N 36°48' W 076°17'0 0.0
2018-Apr-17 05:01N 36°49' W 076°17'0 0.0
2018-Apr-17 04:30N 36°48' W 076°17'0 0.0
2018-Apr-17 04:00N 36°48' W 076°17'0 0.0
2018-Apr-17 03:30N 36°48' W 076°17'0 0.0
2018-Apr-17 03:00N 36°49' W 076°17'0 0.0
2018-Apr-17 02:30N 36°48' W 076°17'0 0.0
2018-Apr-17 02:01N 36°48' W 076°17'0 0.0
2018-Apr-17 01:31N 36°49' W 076°17'0 0.0
2018-Apr-17 01:00N 36°48' W 076°17'0 0.0
2018-Apr-17 00:30N 36°48' W 076°17'0 0.0
2018-Apr-17 00:00N 36°48' W 076°17'0 0.0
2018-Apr-16 23:31N 36°48' W 076°17'0 0.0
2018-Apr-16 23:00N 36°48' W 076°17'0 0.0
2018-Apr-16 22:31N 36°48' W 076°17'0 0.0
2018-Apr-16 22:00N 36°48' W 076°17'0 0.0
2018-Apr-16 21:30N 36°49' W 076°17'1 2.5
2018-Apr-16 21:00N 36°50' W 076°18'2 4.6
2018-Apr-16 20:30N 36°50' W 076°15'5 1.3
2018-Apr-16 16:27N 36°53' W 076°20'0 0.2
2018-Apr-16 15:57N 36°53' W 076°20'3 1.3
2018-Apr-16 13:16N 36°56' W 076°20'2 7.8
2018-Apr-16 12:59N 36°54' W 076°20'4 7.5
2018-Apr-16 12:30N 36°51' W 076°18'3 5.3
2018-Apr-16 12:00N 36°48' W 076°17'0 0.0
2018-Apr-16 11:30N 36°48' W 076°17'0 0.0
2018-Apr-16 11:00N 36°48' W 076°17'0 0.0
2018-Apr-16 10:30N 36°48' W 076°17'0 0.0
2018-Apr-16 10:00N 36°48' W 076°17'0 0.0
2018-Apr-16 09:30N 36°48' W 076°17'0 0.0
2018-Apr-16 09:00N 36°48' W 076°17'0 0.0
2018-Apr-16 08:30N 36°48' W 076°17'0 0.0
2018-Apr-16 08:00N 36°48' W 076°17'0 0.0
2018-Apr-16 07:30N 36°48' W 076°17'0 0.0
2018-Apr-16 07:00N 36°48' W 076°17'0 0.0
2018-Apr-16 06:30N 36°48' W 076°17'0 0.0
2018-Apr-16 06:00N 36°48' W 076°17'0 0.0
2018-Apr-16 05:30N 36°48' W 076°17'0 0.0
2018-Apr-16 05:00N 36°48' W 076°17'0 0.0
2018-Apr-16 04:30N 36°48' W 076°17'0 0.0
2018-Apr-16 04:00N 36°49' W 076°17'0 0.0
2018-Apr-16 03:30N 36°48' W 076°17'0 0.0
2018-Apr-16 03:00N 36°48' W 076°17'0 0.0
2018-Apr-16 02:30N 36°48' W 076°17'0 0.0
2018-Apr-16 02:00N 36°48' W 076°17'0 0.0
2018-Apr-16 01:31N 36°48' W 076°17'0 0.0
2018-Apr-16 01:00N 36°48' W 076°17'0 0.0
2018-Apr-16 00:30N 36°48' W 076°17'0 0.0
2018-Apr-16 00:00N 36°48' W 076°17'0 0.0
2018-Apr-15 23:30N 36°48' W 076°17'0 0.0
2018-Apr-15 23:00N 36°48' W 076°17'0 0.0
2018-Apr-15 22:30N 36°48' W 076°17'0 0.0
2018-Apr-15 22:00N 36°48' W 076°17'0 0.0
2018-Apr-15 21:30N 36°48' W 076°17'0 0.0
2018-Apr-15 21:01N 36°48' W 076°17'0 0.0
2018-Apr-15 20:30N 36°48' W 076°17'0 0.0
2018-Apr-15 20:01N 36°48' W 076°17'0 0.0
2018-Apr-15 19:31N 36°48' W 076°17'0 0.0
2018-Apr-15 19:00N 36°48' W 076°17'0 0.0
2018-Apr-15 18:30N 36°48' W 076°17'0 0.0
2018-Apr-15 18:01N 36°48' W 076°17'0 0.0
2018-Apr-15 17:30N 36°48' W 076°17'0 0.0
2018-Apr-15 17:00N 36°48' W 076°17'0 0.0
2018-Apr-15 16:30N 36°48' W 076°17'0 0.0
2018-Apr-15 16:00N 36°48' W 076°17'0 0.0
2018-Apr-15 15:30N 36°48' W 076°17'0 0.0
2018-Apr-15 15:01N 36°48' W 076°17'0 0.0
2018-Apr-15 14:31N 36°48' W 076°17'0 0.0
2018-Apr-15 14:00N 36°48' W 076°17'0 0.0
2018-Apr-15 13:30N 36°49' W 076°17'0 0.0
2018-Apr-15 13:01N 36°48' W 076°17'0 0.0
2018-Apr-15 12:30N 36°48' W 076°17'0 0.0
2018-Apr-15 12:00N 36°48' W 076°17'0 0.0
2018-Apr-15 11:31N 36°48' W 076°17'0 0.0
2018-Apr-15 11:00N 36°49' W 076°17'0 0.0
2018-Apr-15 10:31N 36°48' W 076°17'0 0.0
2018-Apr-15 10:00N 36°48' W 076°17'0 0.0
2018-Apr-15 09:30N 36°48' W 076°17'0 0.0
2018-Apr-15 09:00N 36°48' W 076°17'0 0.0
2018-Apr-15 08:31N 36°48' W 076°17'0 0.0
2018-Apr-15 08:01N 36°48' W 076°17'0 0.0
2018-Apr-15 07:30N 36°48' W 076°17'0 0.0
2018-Apr-15 07:00N 36°48' W 076°17'0 0.0
2018-Apr-15 06:29N 36°48' W 076°17'0 0.0
2018-Apr-15 06:00N 36°48' W 076°17'0 0.0
2018-Apr-15 05:31N 36°48' W 076°17'0 0.0
2018-Apr-15 05:00N 36°48' W 076°17'0 0.0
2018-Apr-15 04:31N 36°48' W 076°17'0 0.0
2018-Apr-15 04:01N 36°48' W 076°17'0 0.0
2018-Apr-15 03:30N 36°48' W 076°17'0 0.0
2018-Apr-15 03:00N 36°48' W 076°17'0 0.0
2018-Apr-15 02:30N 36°48' W 076°17'0 0.0
2018-Apr-15 02:01N 36°48' W 076°17'0 0.0
2018-Apr-15 01:31N 36°48' W 076°17'0 0.0
2018-Apr-15 01:00N 36°48' W 076°17'0 0.0
2018-Apr-15 00:30N 36°48' W 076°17'0 0.0
2018-Apr-15 00:01N 36°48' W 076°17'0 0.0
2018-Apr-14 23:30N 36°48' W 076°17'0 0.0
2018-Apr-14 23:00N 36°48' W 076°17'0 0.9
2018-Apr-14 22:30N 36°49' W 076°17'2 3.5
2018-Apr-14 22:01N 36°50' W 076°16'1 2.2
2018-Apr-14 21:30N 36°50' W 076°15'3 6.7
2018-Apr-14 21:00N 36°51' W 076°19'  
2018-Apr-11 23:03N 36°56' W 076°20'0 8.2
2018-Apr-11 23:00N 36°56' W 076°20'4 7.7
2018-Apr-11 22:30N 36°52' W 076°19'4 7.3
2018-Apr-11 22:00N 36°50' W 076°15'0 0.3
2018-Apr-11 21:30N 36°50' W 076°15'2 4.5
2018-Apr-11 21:00N 36°50' W 076°18'2 3.4
2018-Apr-11 20:30N 36°49' W 076°17'0 0.0
2018-Apr-11 20:00N 36°48' W 076°17'0 0.0
2018-Apr-11 19:30N 36°48' W 076°17'0 0.0
2018-Apr-11 19:00N 36°49' W 076°17'0 0.0
2018-Apr-11 18:30N 36°48' W 076°17'0 0.0
2018-Apr-11 18:00N 36°48' W 076°17'0 0.0
2018-Apr-11 17:30N 36°49' W 076°17'0 0.0
2018-Apr-11 17:00N 36°48' W 076°17'0 0.0
2018-Apr-11 16:30N 36°49' W 076°17'0 0.0
2018-Apr-11 16:00N 36°49' W 076°17'0 0.0
2018-Apr-11 15:30N 36°48' W 076°17'0 0.0
2018-Apr-11 15:00N 36°49' W 076°17'1 1.9
2018-Apr-11 14:30N 36°49' W 076°17'4 7.2
2018-Apr-11 13:57N 36°53' W 076°21'1 1.8
2018-Apr-11 13:30N 36°52' W 076°20'1 1.5
2018-Apr-11 12:57N 36°53' W 076°21'1 1.3
2018-Apr-11 12:30N 36°52' W 076°20'4 7.5
2018-Apr-11 12:00N 36°49' W 076°17'1 1.5
2018-Apr-11 11:30N 36°48' W 076°17'0 0.0
2018-Apr-11 11:00N 36°48' W 076°17'0 0.0
2018-Apr-11 10:31N 36°48' W 076°17'0 0.0
2018-Apr-11 10:00N 36°48' W 076°17'0 0.0
2018-Apr-11 09:30N 36°48' W 076°17'0 0.0
2018-Apr-11 09:00N 36°48' W 076°17'0 0.0
2018-Apr-11 08:30N 36°48' W 076°17'0 0.0
2018-Apr-11 08:00N 36°48' W 076°17'0 0.0
2018-Apr-11 07:30N 36°48' W 076°17'0 0.0
2018-Apr-11 07:00N 36°48' W 076°17'0 0.0
2018-Apr-11 06:30N 36°48' W 076°17'0 0.0
2018-Apr-11 06:00N 36°48' W 076°17'0 0.0
2018-Apr-11 05:30N 36°48' W 076°17'0 0.0
2018-Apr-11 05:00N 36°48' W 076°17'0 0.0
2018-Apr-11 04:30N 36°48' W 076°17'0 0.0
2018-Apr-11 04:00N 36°48' W 076°17'0 0.0
2018-Apr-11 03:30N 36°48' W 076°17'0 0.0
2018-Apr-11 03:00N 36°48' W 076°17'0 0.0
2018-Apr-11 02:30N 36°48' W 076°17'0 0.0
2018-Apr-11 02:00N 36°48' W 076°17'0 0.0
2018-Apr-11 01:30N 36°48' W 076°17'0 0.0
2018-Apr-11 01:00N 36°48' W 076°17'0 0.0
2018-Apr-11 00:30N 36°48' W 076°17'0 0.0
2018-Apr-11 00:00N 36°48' W 076°17'0 0.0
2018-Apr-10 23:30N 36°48' W 076°17'0 0.0
2018-Apr-10 23:00N 36°48' W 076°17'0 0.0
2018-Apr-10 22:31N 36°48' W 076°17'0 0.0
2018-Apr-10 22:00N 36°48' W 076°17'0 0.0
2018-Apr-10 21:31N 36°48' W 076°17'0 0.0
2018-Apr-10 21:00N 36°48' W 076°17'0 0.0
2018-Apr-10 20:30N 36°48' W 076°17'0 0.0
2018-Apr-10 20:00N 36°48' W 076°17'0 0.0
2018-Apr-10 19:30N 36°48' W 076°17'0 0.0
2018-Apr-10 19:00N 36°48' W 076°17'0 0.0
2018-Apr-10 18:30N 36°48' W 076°17'0 0.0
2018-Apr-10 18:00N 36°48' W 076°17'0 0.0
2018-Apr-10 17:30N 36°48' W 076°17'0 0.0
2018-Apr-10 17:00N 36°48' W 076°17'0 0.0
2018-Apr-10 16:30N 36°48' W 076°17'0 0.0
2018-Apr-10 16:00N 36°48' W 076°17'0 0.0
2018-Apr-10 15:30N 36°48' W 076°17'0 0.0
2018-Apr-10 15:00N 36°48' W 076°17'0 0.0
2018-Apr-10 14:30N 36°48' W 076°17'0 0.0
2018-Apr-10 14:00N 36°48' W 076°17'0 0.0
2018-Apr-10 13:31N 36°48' W 076°17'  

Dump ship's entire track history